Pagrindinis puslapis
METAR-TAF:

METAR-TAF

Oro uostai :

Čongčingas, Kinija

platuma: 29-31N, ilguma: 106-29E, Aukštis: 351 m

Dabartinis oras

Ataskaita buvo paskelbta 1 valandą ir 17 minutes, ne 22:00 UTC
Vėjas 6 kt iš Šiaurės Rytų
Temperatūra 9°C
Drėgmė 87%
Slėgis 1030 hPa
Matomumas: 6000 m

METAR: ZUCK 212200Z 04003MPS 6000 NSC 09/07 Q1030 NOSIG

Laikas: 07:17 (23:17 UTC)

Prognozė

Ataskaita buvo paskelbta 9 valandos ir 8 minutes, ne 14:09 UTC
Prognozė galioja nuo 21 metu 18 UTC su 22 metu 18 UTC
Vėjas 6 kt iš Šiaurės/Šiaurės Rytų
Matomumas: 5000 m
Apsiniaukę ne aukštis 5000 ft
rūkana

TAF: ZUCK 211409Z 2118/2218 03003MPS 5000 BR OVC050 TX13/2207Z TN08/2121Z

Orai ataskaitas ir orų prognozės (METAR, TAF).

turimą stotys yra geltonos ir raudonos taškus žemėlapyje.

Perkelti pele per norėdami pamatyti stoties vardą.

Tada spustelėkite, norėdami matyti oro stebėjimo ir prognozės.

Norėdami pakeisti žemėlapį: spustelėkite ant žalios mygtukų su juodo kryžiaus žemyn,; žalią mygtuką su brūkšneliu, jei norite nutolinti; arba žalių rodyklių gretimoms žemėlapius.


METAR-TAF: